createdAt,value
2023-05-08T00:00:24.521Z,83.31
2023-05-08T00:04:29.120Z,83.42
2023-05-08T00:09:00.603Z,83.56
2023-05-08T00:13:44.911Z,83.62
2023-05-08T00:18:12.992Z,84.02
2023-05-08T00:22:52.656Z,84.32
2023-05-08T00:27:25.443Z,84.14
2023-05-08T00:32:09.761Z,83.97
2023-05-08T00:36:44.741Z,83.98
2023-05-08T00:40:52.790Z,83.86
2023-05-08T00:45:17.776Z,83.89
2023-05-08T00:49:42.057Z,84.01
2023-05-08T00:54:06.382Z,83.54
2023-05-08T00:58:31.796Z,83.88
2023-05-08T01:02:39.757Z,83.94
2023-05-08T01:07:06.043Z,83.68
2023-05-08T01:11:29.084Z,83.51
2023-05-08T01:15:55.136Z,83.52
2023-05-08T01:20:51.448Z,83.44
2023-05-08T01:25:36.479Z,83.47
2023-05-08T01:29:47.797Z,83.34
2023-05-08T01:34:34.793Z,83.45
2023-05-08T01:39:15.560Z,83.59
2023-05-08T01:44:11.820Z,83.51
2023-05-08T01:48:40.531Z,83.35
2023-05-08T01:53:04.525Z,83.34
2023-05-08T01:57:28.969Z,83.21
2023-05-08T02:01:52.880Z,83.43
2023-05-08T02:05:57.451Z,83.23
2023-05-08T02:10:36.392Z,83.12
2023-05-08T02:15:21.389Z,83.04
2023-05-08T02:19:47.390Z,82.96
2023-05-08T02:24:20.815Z,83.14
2023-05-08T02:29:04.817Z,83.33
2023-05-08T02:33:48.875Z,83.39
2023-05-08T02:38:32.994Z,83.56
2023-05-08T02:42:56.921Z,83.45
2023-05-08T02:47:37.204Z,83.79
2023-05-08T02:52:06.829Z,83.64
2023-05-08T02:56:30.987Z,83.55
2023-05-08T03:01:16.235Z,83.69
2023-05-08T03:06:00.316Z,83.46
2023-05-08T03:10:44.662Z,83.84
2023-05-08T03:15:35.640Z,83.87
2023-05-08T03:19:53.337Z,84.14
2023-05-08T03:24:18.537Z,84.46
2023-05-08T03:28:47.979Z,84.48
2023-05-08T03:32:56.371Z,84.46
2023-05-08T03:37:40.767Z,84.75
2023-05-08T03:42:20.247Z,84.57
2023-05-08T03:47:04.613Z,84.63
2023-05-08T03:51:33.053Z,84.77
2023-05-08T03:56:04.380Z,84.20
2023-05-08T04:00:36.457Z,84.43
2023-05-08T04:05:12.953Z,83.93
2023-05-08T04:09:53.686Z,83.53
2023-05-08T04:14:10.717Z,83.19
2023-05-08T04:18:24.401Z,82.89
2023-05-08T04:23:10.668Z,82.71
2023-05-08T04:27:44.926Z,81.60
2023-05-08T04:32:19.318Z,81.50
2023-05-08T04:36:47.576Z,81.38
2023-05-08T04:41:11.951Z,81.14
2023-05-08T04:45:24.034Z,81.04
2023-05-08T04:50:08.350Z,80.40
2023-05-08T04:54:52.569Z,79.71
2023-05-08T04:59:21.066Z,79.11
2023-05-08T05:04:06.302Z,78.34
2023-05-08T05:08:52.781Z,78.24
2023-05-08T05:13:36.974Z,77.59
2023-05-08T05:18:22.357Z,77.04
2023-05-08T05:23:06.581Z,76.83
2023-05-08T05:27:50.931Z,75.17
2023-05-08T05:32:35.322Z,75.48
2023-05-08T05:37:00.820Z,74.76
2023-05-08T05:41:20.442Z,74.20
2023-05-08T05:45:46.668Z,73.23
2023-05-08T05:50:30.735Z,71.90
2023-05-08T05:55:00.714Z,71.95
2023-05-08T05:59:27.721Z,71.80
2023-05-08T06:03:53.189Z,71.29
2023-05-08T06:08:13.217Z,71.11
2023-05-08T06:12:37.154Z,69.77
2023-05-08T06:16:48.993Z,69.56
2023-05-08T06:21:14.912Z,69.83
2023-05-08T06:25:46.594Z,70.13
2023-05-08T06:30:30.544Z,69.17
2023-05-08T06:34:46.638Z,67.56
2023-05-08T06:39:15.044Z,66.81
2023-05-08T06:43:58.886Z,65.85
2023-05-08T06:48:07.586Z,65.33
2023-05-08T06:52:25.993Z,65.04
2023-05-08T06:56:30.297Z,63.71
2023-05-08T07:00:47.880Z,62.59
2023-05-08T07:04:33.753Z,60.32
2023-05-08T07:08:48.718Z,60.85
2023-05-08T07:13:06.127Z,60.05
2023-05-08T07:17:19.537Z,60.09
2023-05-08T07:20:58.689Z,59.66
2023-05-08T07:24:26.291Z,58.93
2023-05-08T07:28:32.291Z,59.00
2023-05-08T07:32:38.310Z,58.49
2023-05-08T07:36:44.328Z,59.44
2023-05-08T07:40:28.236Z,60.21
2023-05-08T07:44:40.559Z,59.81
2023-05-08T07:48:55.197Z,60.07
2023-05-08T07:53:38.984Z,60.37
2023-05-08T07:57:54.955Z,59.80
2023-05-08T08:01:59.307Z,59.26
2023-05-08T08:06:43.146Z,58.82
2023-05-08T08:10:47.014Z,58.77
2023-05-08T08:14:51.352Z,58.95
2023-05-08T08:19:06.811Z,57.98
2023-05-08T08:23:10.866Z,59.38
2023-05-08T08:27:19.095Z,58.22
2023-05-08T08:31:28.270Z,56.64
2023-05-08T08:35:30.379Z,57.34
2023-05-08T08:39:39.348Z,56.62
2023-05-08T08:43:47.334Z,58.07
2023-05-08T08:47:42.272Z,57.17
2023-05-08T08:51:47.608Z,55.90
2023-05-08T08:56:08.702Z,56.64
2023-05-08T09:00:35.836Z,57.05
2023-05-08T09:04:40.800Z,57.58
2023-05-08T09:08:49.603Z,58.51
2023-05-08T09:13:09.183Z,59.62
2023-05-08T09:16:54.520Z,58.00
2023-05-08T09:21:18.529Z,56.93
2023-05-08T09:25:54.738Z,57.70
2023-05-08T09:30:44.494Z,55.41
2023-05-08T09:35:14.354Z,57.34
2023-05-08T09:39:53.147Z,57.06
2023-05-08T09:44:14.764Z,57.27
2023-05-08T09:48:24.706Z,56.16
2023-05-08T09:52:52.714Z,56.82
2023-05-08T09:57:32.667Z,55.86
2023-05-08T10:01:40.969Z,54.59
2023-05-08T10:06:09.700Z,54.63
2023-05-08T10:10:52.867Z,54.21
2023-05-08T10:14:57.707Z,54.28
2023-05-08T10:19:07.262Z,53.28
2023-05-08T10:23:15.826Z,53.73
2023-05-08T10:28:06.079Z,53.57
2023-05-08T10:32:22.064Z,53.05
2023-05-08T10:36:08.432Z,52.72
2023-05-08T10:40:10.899Z,52.22
2023-05-08T10:44:24.848Z,52.76
2023-05-08T10:48:47.866Z,52.50
2023-05-08T10:53:43.413Z,52.63
2023-05-08T10:57:56.332Z,52.27
2023-05-08T11:01:55.025Z,52.63
2023-05-08T11:06:15.797Z,51.19
2023-05-08T11:10:43.205Z,51.51
2023-05-08T11:14:34.918Z,51.11
2023-05-08T11:22:57.494Z,50.86
2023-05-08T11:27:22.644Z,51.76
2023-05-08T11:31:12.466Z,51.80
2023-05-08T11:35:17.117Z,51.29
2023-05-08T11:39:36.756Z,49.92
2023-05-08T11:43:19.399Z,50.51
2023-05-08T11:46:52.403Z,49.20
2023-05-08T11:50:18.709Z,49.06
2023-05-08T11:53:47.838Z,48.64
2023-05-08T11:57:24.976Z,49.41
2023-05-08T12:01:07.374Z,49.63
2023-05-08T12:05:12.883Z,49.98
2023-05-08T12:09:15.475Z,50.11
2023-05-08T12:13:32.161Z,49.82
2023-05-08T12:17:39.955Z,49.84
2023-05-08T12:21:22.253Z,50.54
2023-05-08T12:24:51.931Z,49.71
2023-05-08T12:28:17.643Z,49.65
2023-05-08T12:31:52.428Z,49.79
2023-05-08T12:35:31.664Z,49.33
2023-05-08T12:39:09.251Z,48.50
2023-05-08T12:42:50.951Z,48.92
2023-05-08T12:46:18.026Z,48.65
2023-05-08T12:49:57.765Z,48.72
2023-05-08T12:53:25.025Z,48.80
2023-05-08T12:57:01.419Z,49.27
2023-05-08T13:00:39.388Z,49.39
2023-05-08T13:04:37.932Z,48.73
2023-05-08T13:09:26.577Z,49.06
2023-05-08T13:12:52.171Z,49.73
2023-05-08T13:16:36.150Z,49.70
2023-05-08T13:20:35.923Z,48.56
2023-05-08T13:24:05.260Z,48.86
2023-05-08T13:27:43.537Z,49.20
2023-05-08T13:31:27.641Z,49.03
2023-05-08T13:35:13.530Z,49.96
2023-05-08T13:39:16.729Z,49.66
2023-05-08T13:43:04.537Z,48.53
2023-05-08T13:47:07.091Z,48.14
2023-05-08T13:50:43.908Z,47.09
2023-05-08T13:54:11.372Z,46.83
2023-05-08T13:57:35.982Z,46.88
2023-05-08T14:01:13.827Z,46.58
2023-05-08T14:05:00.344Z,45.96
2023-05-08T14:08:47.163Z,45.09
2023-05-08T14:12:16.309Z,44.23
2023-05-08T14:16:08.841Z,46.22
2023-05-08T14:19:52.730Z,44.47
2023-05-08T14:23:27.920Z,45.06
2023-05-08T14:26:54.312Z,44.81
2023-05-08T14:30:21.850Z,45.65
2023-05-08T14:33:46.473Z,44.82
2023-05-08T14:37:12.769Z,45.50
2023-05-08T14:40:40.582Z,46.19
2023-05-08T14:44:02.354Z,45.03
2023-05-08T14:47:30.458Z,45.06
2023-05-08T14:51:16.082Z,45.12
2023-05-08T14:54:59.704Z,44.27
2023-05-08T14:58:42.680Z,44.21
2023-05-08T15:02:04.708Z,44.60
2023-05-08T15:05:30.669Z,45.25
2023-05-08T15:09:16.055Z,44.13
2023-05-08T15:13:06.617Z,43.71
2023-05-08T15:16:29.732Z,44.47
2023-05-08T15:19:56.532Z,44.45
2023-05-08T15:23:43.696Z,44.69
2023-05-08T15:27:21.653Z,45.91
2023-05-08T15:31:17.416Z,45.87
2023-05-08T15:35:02.866Z,46.57
2023-05-08T15:38:35.737Z,46.90
2023-05-08T15:42:05.791Z,47.27
2023-05-08T15:45:31.585Z,47.76
2023-05-08T15:49:01.935Z,46.64
2023-05-08T15:52:36.210Z,47.27
2023-05-08T15:56:24.685Z,47.63
2023-05-08T15:59:57.940Z,48.75
2023-05-08T16:03:37.797Z,47.63
2023-05-08T16:07:22.163Z,48.40
2023-05-08T16:11:08.925Z,47.46
2023-05-08T16:15:12.445Z,47.81
2023-05-08T16:19:17.225Z,47.24
2023-05-08T16:23:16.218Z,47.74
2023-05-08T16:26:37.942Z,48.62
2023-05-08T16:30:17.622Z,49.27
2023-05-08T16:34:20.332Z,49.82
2023-05-08T16:38:09.904Z,49.16
2023-05-08T16:42:14.047Z,49.03
2023-05-08T16:46:09.455Z,48.61
2023-05-08T16:49:55.304Z,48.03
2023-05-08T16:53:58.135Z,48.41
2023-05-08T16:58:05.778Z,47.60
2023-05-08T17:02:26.307Z,46.07
2023-05-08T17:06:17.755Z,44.94
2023-05-08T17:09:53.400Z,44.21
2023-05-08T17:13:26.392Z,44.06
2023-05-08T17:16:48.720Z,43.64
2023-05-08T17:20:47.949Z,44.66
2023-05-08T17:24:15.260Z,45.76
2023-05-08T17:27:57.935Z,45.99
2023-05-08T17:31:43.899Z,44.96
2023-05-08T17:35:30.048Z,44.77
2023-05-08T17:38:59.408Z,44.80
2023-05-08T17:42:21.286Z,46.04
2023-05-08T17:46:15.443Z,48.51
2023-05-08T17:50:18.217Z,48.66
2023-05-08T17:54:22.907Z,50.83
2023-05-08T17:58:29.721Z,52.27
2023-05-08T18:02:52.172Z,52.43
2023-05-08T18:07:14.734Z,53.27
2023-05-08T18:11:21.670Z,54.71
2023-05-08T18:15:19.769Z,55.07
2023-05-08T18:19:22.856Z,55.54
2023-05-08T18:23:49.357Z,56.11
2023-05-08T18:28:19.689Z,56.57
2023-05-08T18:32:38.789Z,57.13
2023-05-08T18:37:01.095Z,57.47
2023-05-08T18:41:38.877Z,57.90
2023-05-08T18:46:26.119Z,58.47
2023-05-08T18:50:52.452Z,58.06
2023-05-08T18:55:27.380Z,58.61
2023-05-08T18:59:30.068Z,59.03
2023-05-08T19:03:52.270Z,59.27
2023-05-08T19:08:36.580Z,59.46
2023-05-08T19:12:59.451Z,60.20
2023-05-08T19:17:02.223Z,60.95
2023-05-08T19:21:33.475Z,60.13
2023-05-08T19:25:59.952Z,61.17
2023-05-08T19:30:22.557Z,61.56
2023-05-08T19:34:45.720Z,61.42
2023-05-08T19:39:25.913Z,62.10
2023-05-08T19:44:03.668Z,62.18
2023-05-08T19:48:33.981Z,62.88
2023-05-08T19:52:57.474Z,62.53
2023-05-08T19:57:24.178Z,62.59
2023-05-08T20:01:51.234Z,63.50
2023-05-08T20:06:33.993Z,63.75
2023-05-08T20:11:17.181Z,64.65
2023-05-08T20:15:09.096Z,64.43
2023-05-08T20:19:51.387Z,65.81
2023-05-08T20:23:55.751Z,65.45
2023-05-08T20:28:19.377Z,64.28
2023-05-08T20:32:54.858Z,64.21
2023-05-08T20:37:21.448Z,64.57
2023-05-08T20:41:39.833Z,66.27
2023-05-08T20:46:03.988Z,68.38
2023-05-08T20:50:27.807Z,68.15
2023-05-08T20:54:46.740Z,66.76
2023-05-08T20:59:29.611Z,68.31
2023-05-08T21:03:57.217Z,68.57
2023-05-08T21:08:41.254Z,67.32
2023-05-08T21:13:24.342Z,66.78
2023-05-08T21:24:20.526Z,69.12
2023-05-08T21:29:06.950Z,67.28
2023-05-08T21:33:46.103Z,68.33
2023-05-08T21:38:30.653Z,69.12
2023-05-08T21:43:19.863Z,68.10
2023-05-08T21:48:06.519Z,70.00
2023-05-08T21:52:50.229Z,68.25
2023-05-08T21:57:15.374Z,68.89
2023-05-08T22:01:43.678Z,69.56
2023-05-08T22:06:27.755Z,71.01
2023-05-08T22:10:47.803Z,71.07
2023-05-08T22:15:02.497Z,70.37
2023-05-08T22:19:46.804Z,70.01
2023-05-08T22:24:23.586Z,68.89
2023-05-08T22:29:08.705Z,68.99
2023-05-08T22:33:20.821Z,69.15
2023-05-08T22:38:05.512Z,71.07
2023-05-08T22:42:50.991Z,70.46
2023-05-08T22:47:16.892Z,71.06
2023-05-08T23:03:22.965Z,72.29
2023-05-08T23:08:06.863Z,72.08
2023-05-08T23:12:32.107Z,71.15
2023-05-08T23:17:16.375Z,70.99
2023-05-08T23:22:00.770Z,70.93
2023-05-08T23:26:27.852Z,72.15
2023-05-08T23:30:55.801Z,71.07
2023-05-08T23:35:21.934Z,70.92
2023-05-08T23:39:29.908Z,70.86
2023-05-08T23:43:44.166Z,72.97
2023-05-08T23:48:31.554Z,71.88
2023-05-08T23:53:15.611Z,72.53
2023-05-08T23:57:47.082Z,73.66
